• Join FlightAware (Why Join?)
  • Login
  • US Flag 
07:26PM EDT


 

Airport Tracker/Info


-or-


 

Live Flight TrackerFlight Track Log ✈ UAL1480 ✈ 22-Apr-2013 ✈ KEWR - MYNN / NAS

Flight Track Log - Related Links

Times and Time Zones

All times are in EDT time to prevent confusion due to time zone crossing. See the UAL1480 flight status page for this flight to view local times or setup timezone preferences in your user account.

Time Position Orientation Groundspeed Altitude Reporting Facility
EDT Latitude Longitude Course Direction KTS MPH feet Rate Location/Type
12:03PM 40.7330 -74.1240 40° Northeast 212 244 1,800  Level FlightAware
12:03PM 40.7408 -74.1140 44° Northeast 215 247 2,500 4,140 Climbing FlightAware ADS-B
12:03PM 40.7443 -74.1113 30° Northeast 216 249 2,700 3,000 Climbing FlightAware ADS-B
12:03PM 40.7477 -74.1095 22° Northeast 222 255 2,900 2,220 Climbing FlightAware ADS-B
12:03PM 40.7516 -74.1082 14° North 228 262 3,000 2,520 Climbing FlightAware ADS-B
12:03PM 40.7549 -74.1077 North 232 267 3,200 4,260 Climbing FlightAware ADS-B
12:04PM 40.7596 -74.1080 357° North 234 269 3,500 3,720 Climbing FlightAware ADS-B
12:04PM 40.7637 -74.1091 349° North 237 273 3,700 3,000 Climbing FlightAware ADS-B
12:04PM 40.7677 -74.1111 339° North 240 276 3,900 3,420 Climbing FlightAware ADS-B
12:04PM 40.7707 -74.1132 332° Northwest 243 280 4,100 3,720 Climbing FlightAware ADS-B
12:04PM 40.7751 -74.1175 323° Northwest 244 281 4,400 3,000 Climbing FlightAware ADS-B
12:04PM 40.7775 -74.1206 316° Northwest 245 282 4,500 3,000 Climbing FlightAware ADS-B
12:04PM 40.7800 -74.1245 310° West 248 285 4,700 3,000 Climbing FlightAware ADS-B
12:04PM 40.7821 -74.1286 304° West 250 288 4,800 1,680 Climbing FlightAware ADS-B
12:04PM 40.7840 -74.1332 299° West 251 289 4,900 2,220 Climbing FlightAware ADS-B
12:04PM 40.7856 -74.1389 290° West 249 287 5,100 1,980 Climbing FlightAware ADS-B
12:04PM 40.7868 -74.1474 281° West 247 284 5,200 960 Climbing FlightAware ADS-B
12:04PM 40.7866 -74.1576 269° West 243 280 5,300 1,080 Climbing FlightAware ADS-B
12:04PM 40.7856 -74.1630 256° West 243 280 5,400 1,320 Climbing FlightAware ADS-B
12:04PM 40.7839 -74.1691 250° West 243 280 5,500 1,500 Climbing FlightAware ADS-B
12:05PM 40.7798 -74.1781 239° Southwest 246 283 5,700 2,460 Climbing FlightAware ADS-B
12:05PM 40.7753 -74.1844 227° Southwest 246 283 6,000 3,000 Climbing FlightAware ADS-B
12:05PM 40.7749 -74.1849 223° Southwest 246 283 6,000 2,400 Level FlightAware ADS-B
12:05PM 40.7711 -74.1886 216° Southwest 246 283 6,200 2,220 Climbing FlightAware ADS-B
12:05PM 40.7676 -74.1912 209° Southwest 245 282 6,300 3,000 Climbing FlightAware ADS-B
12:05PM 40.7649 -74.1928 204° Southwest 243 280 6,500 3,960 Climbing FlightAware ADS-B
12:05PM 40.7612 -74.1944 198° South 240 276 6,700 3,000 Climbing FlightAware ADS-B
12:05PM 40.7592 -74.1952 197° South 240 276 6,800 4,200 Climbing FlightAware ADS-B
12:05PM 40.7425 -74.2015 196° South 238 274 7,900 4,320 Climbing FlightAware ADS-B
12:05PM 40.7399 -74.2025 196° South 237 273 8,100 4,080 Climbing FlightAware ADS-B
12:05PM 40.7265 -74.2077 196° South 234 269 9,000 3,960 Climbing FlightAware ADS-B
12:05PM 40.7207 -74.2099 196° South 236 272 9,300 3,480 Climbing FlightAware ADS-B
12:06PM 40.7090 -74.2143 196° South 235 270 10,000 3,420 Climbing FlightAware ADS-B
12:06PM 40.6938 -74.2197 195° South 238 274 10,800 3,240 Climbing FlightAware ADS-B
12:06PM 40.6852 -74.2217 190° South 240 276 11,200 2,820 Climbing FlightAware ADS-B
12:06PM 40.6723 -74.2226 183° South 250 288 11,700 1,680 Climbing FlightAware ADS-B
12:06PM 40.6612 -74.2214 175° South 265 305 11,800 720 Climbing FlightAware ADS-B
12:07PM 40.6525 -74.2198 172° South 275 316 11,900 360 Climbing FlightAware ADS-B
12:07PM 40.6198 -74.2138 172° South 322 371 12,000 240 Climbing FlightAware ADS-B
12:07PM 40.5935 -74.2090 172° South 302 348 12,100 960 Climbing FlightAware ADS-B
12:07PM 40.5709 -74.2050 172° South 364 419 12,500 2,280 Climbing FlightAware ADS-B
12:08PM 40.5403 -74.1996 172° South 367 422 13,300 2,880 Climbing FlightAware ADS-B
12:08PM 40.5184 -74.1958 172° South 371 427 14,000 2,760 Climbing FlightAware ADS-B
12:08PM 40.4647 -74.1866 173° South 378 435 15,400 2,220 Climbing FlightAware ADS-B
12:09PM 40.4120 -74.1772 172° South 385 443 16,300 960 Climbing FlightAware ADS-B
12:09PM 40.3575 -74.1676 172° South 386 444 16,400 960 Climbing FlightAware ADS-B
12:10PM 40.3239 -74.1636 175° South 385 443 17,100 2,400 Climbing FlightAware ADS-B
12:10PM 40.3017 -74.1648 182° South 384 442 17,700 2,520 Climbing FlightAware ADS-B
12:10PM 40.2876 -74.1672 187° South 385 443 18,000 1,980 Climbing FlightAware ADS-B
12:10PM 40.2651 -74.1734 192° South 387 445 18,400 2,340 Climbing FlightAware ADS-B
12:11PM 40.2113 -74.1897 193° South 394 453 19,700 2,220 Climbing FlightAware ADS-B
12:11PM 40.1449 -74.2096 193° South 397 457 20,900 2,160 Climbing FlightAware ADS-B
12:12PM 40.0902 -74.2261 193° South 395 455 22,200 2,100 Climbing FlightAware ADS-B
12:12PM 40.0342 -74.2435 193° South 402 463 23,100 1,860 Climbing FlightAware ADS-B
12:13PM 40.0039 -74.2590 201° Southwest 402 463 23,700 2,160 Climbing FlightAware ADS-B
12:13PM 39.9753 -74.2813 211° Southwest 397 457 24,400 3,000 Climbing FlightAware ADS-B
12:14PM 39.9303 -74.3243 216° Southwest 381 438 26,200 3,900 Climbing FlightAware ADS-B
12:14PM 39.8871 -74.3653 216° Southwest 341 392 28,500 3,000 Climbing FlightAware ADS-B
12:15PM 39.8475 -74.4029 216° Southwest 339 390 29,400 1,680 Climbing FlightAware ADS-B
12:15PM 39.8251 -74.4244 216° Southwest 338 389 29,900 1,560 Climbing FlightAware ADS-B
12:15PM 39.8056 -74.4472 222° Southwest 339 390 30,300 1,500 Climbing FlightAware ADS-B
12:16PM 39.7719 -74.4917 225° Southwest 340 391 31,100 1,500 Climbing FlightAware ADS-B
12:16PM 39.7480 -74.5235 226° Southwest 341 392 31,600 1,200 Climbing FlightAware ADS-B
12:17PM 39.7130 -74.5698 226° Southwest 342 394 32,200 1,200 Climbing FlightAware ADS-B
12:17PM 39.6787 -74.6153 226° Southwest 342 394 32,900 1,200 Climbing FlightAware ADS-B
12:18PM 39.6443 -74.6607 225° Southwest 343 395 33,500 1,020 Climbing FlightAware ADS-B
12:18PM 39.6104 -74.7054 225° Southwest 344 396 34,000 480 Climbing FlightAware ADS-B
12:19PM 39.5767 -74.7500 226° Southwest 341 392 34,000  Level FlightAware ADS-B
12:19PM 39.5433 -74.7941 226° Southwest 342 394 34,000 660 Level FlightAware ADS-B
12:20PM 39.5089 -74.8392 225° Southwest 334 384 34,700 1,440 Climbing FlightAware ADS-B
12:20PM 39.4758 -74.8825 225° Southwest 330 380 35,500 1,200 Climbing FlightAware ADS-B
12:21PM 39.4426 -74.9259 225° Southwest 330 380 36,000 420 Climbing FlightAware ADS-B
12:21PM 39.4010 -74.9803 225° Southwest 339 390 36,000  Level FlightAware ADS-B
12:22PM 39.3665 -75.0259 226° Southwest 342 394 36,000  Level FlightAware ADS-B
12:22PM 39.3329 -75.0695 225° Southwest 343 395 36,000  Level FlightAware ADS-B
12:23PM 39.2931 -75.1128 220° Southwest 345 397 36,000  Level FlightAware ADS-B
12:23PM 39.2778 -75.1229 207° Southwest 347 399 36,000  Level FlightAware ADS-B
12:24PM 39.2327 -75.1468 202° Southwest 348 400 36,000  Level FlightAware ADS-B
12:24PM 39.1877 -75.1705 202° Southwest 349 402 36,000  Level FlightAware ADS-B
12:25PM 39.1422 -75.1946 202° Southwest 349 402 36,000  Level FlightAware ADS-B
12:25PM 39.0963 -75.2188 202° Southwest 348 400 36,000  Level FlightAware ADS-B
12:26PM 39.0504 -75.2429 202° Southwest 347 399 36,000  Level FlightAware ADS-B
12:26PM 38.9960 -75.2714 202° Southwest 346 398 36,000  Level FlightAware ADS-B
12:27PM 38.9509 -75.2950 202° Southwest 346 398 36,000  Level FlightAware ADS-B
12:27PM 38.9055 -75.3188 202° Southwest 346 398 36,000  Level FlightAware ADS-B
12:28PM 38.8545 -75.3456 202° Southwest 347 399 36,000  Level FlightAware ADS-B
12:28PM 38.8002 -75.3740 202° Southwest 348 400 36,000  Level FlightAware ADS-B
12:29PM 38.7543 -75.3979 202° Southwest 349 402 36,000  Level FlightAware ADS-B
12:30PM 38.7060 -75.4230 202° Southwest 348 400 36,000  Level FlightAware
12:30PM 38.6830 -75.4349 202° Southwest 349 402 36,000  Level FlightAware ADS-B
12:30PM 38.6354 -75.4598 202° Southwest 349 402 36,000  Level FlightAware ADS-B
12:31PM 38.5831 -75.4869 202° Southwest 349 402 36,000  Level FlightAware ADS-B
12:31PM 38.5341 -75.5123 202° Southwest 349 402 36,000  Level FlightAware ADS-B
12:32PM 38.4889 -75.5357 202° Southwest 350 403 36,000  Level FlightAware ADS-B
12:33PM 38.4362 -75.5629 202° Southwest 350 403 36,000  Level FlightAware ADS-B
12:33PM 38.3859 -75.5889 202° Southwest 351 404 36,000  Level FlightAware ADS-B
12:34PM 38.3358 -75.6146 202° Southwest 352 405 36,000  Level FlightAware ADS-B
12:34PM 38.2840 -75.6410 202° Southwest 345 397 36,000  Level FlightAware
12:35PM 38.2591 -75.6540 202° Southwest 353 406 36,000  Level FlightAware ADS-B
12:35PM 38.2121 -75.6782 202° Southwest 353 406 36,000  Level FlightAware ADS-B
12:36PM 38.1664 -75.7016 202° Southwest 354 407 36,000  Level FlightAware ADS-B
12:36PM 38.1195 -75.7256 202° Southwest 353 406 36,000  Level FlightAware ADS-B
12:37PM 38.0706 -75.7505 202° Southwest 354 407 36,000  Level FlightAware ADS-B
12:38PM 37.9692 -75.8023 202° Southwest 353 406 36,000  Level FlightAware ADS-B
12:38PM 37.9193 -75.8276 202° Southwest 352 405 36,000  Level FlightAware ADS-B
12:39PM 37.8738 -75.8507 202° Southwest 352 405 36,000  Level FlightAware ADS-B
12:39PM 37.8272 -75.8743 202° Southwest 354 407 36,000  Level FlightAware ADS-B
12:40PM 37.7723 -75.9022 202° Southwest 353 406 36,000  Level FlightAware ADS-B
12:40PM 37.7330 -75.9220 202° Southwest 346 398 36,000  Level FlightAware
12:41PM 37.6750 -75.9520 202° Southwest 346 398 36,000  Level FlightAware
12:42PM 37.6150 -75.9820 202° Southwest 346 398 36,000  Level FlightAware
12:42PM 37.5590 -76.0100 202° Southwest 345 397 36,000  Level FlightAware
12:43PM 37.4850 -76.0470 202° Southwest 347 399 36,000  Level FlightAware
12:44PM 37.4263 -76.0765 202° Southwest 354 407 36,000  Level FlightAware ADS-B
12:44PM 37.3762 -76.1016 202° Southwest 356 410 36,000  Level FlightAware ADS-B
12:45PM 37.3309 -76.1243 202° Southwest 356 410 36,000  Level FlightAware ADS-B
12:45PM 37.2622 -76.1585 202° Southwest 357 411 36,000  Level FlightAware ADS-B
12:46PM 37.1901 -76.1944 202° Southwest 359 413 36,000  Level FlightAware ADS-B
12:47PM 37.1424 -76.2182 202° Southwest 360 414 36,000  Level FlightAware ADS-B
12:49PM 36.9310 -76.3230 202° Southwest 36,000  Level FlightAware
12:50PM 36.8714 -76.3525 202° Southwest 366 421 36,000  Level Washington Center
12:51PM 36.7750 -76.3983 201° Southwest 366 421 36,000 -60 Level Washington Center
12:52PM 36.6744 -76.4542 204° Southwest 371 427 35,900  Descending Washington Center
12:53PM 36.5803 -76.4972 200° South 371 427 36,000  Climbing Washington Center
12:54PM 36.4883 -76.5400 201° Southwest 365 420 36,000 -60 Level Washington Center
12:55PM 36.3939 -76.5881 202° Southwest 365 420 35,900 -60 Descending Washington Center
12:56PM 36.3017 -76.6306 200° South 365 420 35,900  Level Washington Center
12:57PM 36.2094 -76.6758 202° Southwest 365 420 36,000  Climbing Washington Center
12:58PM 36.1172 -76.7208 202° Southwest 360 414 36,000  Level Washington Center
12:59PM 36.0231 -76.7631 200° South 360 414 36,000  Level Washington Center
01:00PM 35.9286 -76.8106 202° Southwest 360 414 36,000  Level Washington Center
01:01PM 35.8344 -76.8578 202° Southwest 365 420 36,000 -60 Level Washington Center
01:02PM 35.7400 -76.8997 200° South 365 420 35,900  Descending Washington Center
01:03PM 35.6436 -76.9442 201° Southwest 371 427 36,000  Climbing Washington Center
01:04PM 35.5617 -76.9861 203° Southwest 371 427 36,000  Level Washington Center
01:05PM 35.4650 -77.0303 200° South 371 427 36,000  Level Washington Center
01:06PM 35.3706 -77.0772 202° Southwest 377 434 36,000  Level Washington Center
01:07PM 35.2742 -77.1236 201° Southwest 377 434 36,000  Level Washington Center
01:08PM 35.1797 -77.1675 201° Southwest 377 434 36,000  Level Washington Center
01:09PM 35.0853 -77.2089 200° South 371 427 36,000  Level Washington Center
01:10PM 34.9886 -77.2578 203° Southwest 371 427 36,000  Level Washington Center
01:11PM 34.8919 -77.3014 200° South 377 434 36,000  Level Washington Center
01:12PM 34.7847 -77.3522 201° Southwest 371 427 36,000  Level Washington Center
01:13PM 34.6903 -77.3981 202° Southwest 371 427 36,000  Level Washington Center
01:14PM 34.5914 -77.4439 201° Southwest 377 434 36,000  Level Washington Center
01:15PM 34.4908 -77.4692 192° South 372 428 36,000  Level Washington Center
01:16PM 34.3864 -77.4844 187° South 372 428 36,000  Level Washington Center
01:17PM 34.2839 -77.5022 188° South 377 434 36,000  Level Washington Center
01:18PM 34.1792 -77.5225 189° South 377 434 36,000  Level Washington Center
01:19PM 34.0725 -77.5400 188° South 382 440 36,000  Level Washington Center
01:20PM 33.9947 -77.5528 188° South 394 453 36,000  Level Jacksonville Center
01:21PM 33.8889 -77.5717 188° South 400 460 36,000  Level Jacksonville Center
01:22PM 33.7814 -77.5931 189° South 400 460 36,000  Level Jacksonville Center
01:23PM 33.6758 -77.6094 187° South 400 460 36,000  Level Jacksonville Center
01:24PM 33.5575 -77.6289 188° South 389 448 36,000  Level Jacksonville Center
01:25PM 33.4519 -77.6478 188° South 389 448 36,000  Level Jacksonville Center
01:26PM 33.3442 -77.6664 188° South 389 448 36,000  Level Jacksonville Center
01:27PM 33.2364 -77.6853 188° South 389 448 36,000  Level Jacksonville Center
01:28PM 33.1289 -77.7039 188° South 389 448 36,000  Level Jacksonville Center
01:29PM 33.0336 -77.7219 189° South 389 448 36,000  Level Jacksonville Center
01:30PM 32.9217 -77.7406 188° South 389 448 36,000 -60 Level Jacksonville Center
01:31PM 32.8136 -77.7567 187° South 389 448 35,900  Descending Jacksonville Center
01:32PM 32.7072 -77.7553 179° South 389 448 36,000  Climbing Jacksonville Center
01:33PM 32.6008 -77.7539 179° South 384 442 36,000  Level Jacksonville Center
01:34PM 32.4922 -77.7553 181° South 384 442 36,000 -60 Level Jacksonville Center
01:35PM 32.3836 -77.7539 179° South 384 442 35,900 -60 Descending Jacksonville Center
01:36PM 32.2772 -77.7500 178° South 384 442 35,900  Level Jacksonville Center
01:37PM 32.1667 -77.7564 183° South 384 442 36,000  Climbing Jacksonville Center
01:38PM 32.0581 -77.7550 179° South 384 442 35,900 -60 Descending Jacksonville Center
01:39PM 31.9475 -77.7539 180° South 390 449 35,900  Level Jacksonville Center
01:40PM 31.8369 -77.7528 180° South 390 449 36,000  Climbing Jacksonville Center
01:41PM 31.7261 -77.7539 180° South 396 456 36,000  Level Jacksonville Center
01:42PM 31.6136 -77.7528 180° South 401 461 36,000  Level Jacksonville Center
01:43PM 31.5028 -77.7517 180° South 401 461 36,000  Level Jacksonville Center
01:44PM 31.3900 -77.7483 179° South 401 461 36,000  Level Jacksonville Center
01:45PM 31.2772 -77.7494 180° South 401 461 36,000  Level Jacksonville Center
01:46PM 31.1644 -77.7483 180° South 406 467 36,000  Level Jacksonville Center
01:47PM 31.0517 -77.7472 180° South 406 467 36,000  Level Jacksonville Center
01:48PM 30.9344 -77.7392 177° South 412 474 36,000  Level Jacksonville Center
01:49PM 30.8181 -77.7456 183° South 419 482 36,000  Level Jacksonville Center
01:51PM 30.5800 -77.7439 180° South 424 488 36,000  Level Jacksonville Center
01:53PM 30.2839 -77.7494 181° South 420 483 36,000  Level Miami Center
01:54PM 30.1714 -77.7436 177° South 398 458 36,000  Level Miami Center
01:55PM 30.0567 -77.7403 179° South 420 483 36,000  Level Miami Center
01:56PM 29.9378 -77.7344 178° South 425 489 36,000  Level Miami Center
01:57PM 29.8169 -77.7264 177° South 432 497 36,000  Level Miami Center
01:58PM 29.7003 -77.7208 178° South 427 491 36,000  Level Miami Center
01:59PM 29.5772 -77.7125 177° South 427 491 36,000  Level Miami Center
02:00PM 29.4583 -77.7069 178° South 427 491 36,000  Level Miami Center
02:01PM 29.3375 -77.7011 178° South 433 498 36,000 -60 Level Miami Center
02:02PM 29.2122 -77.6908 176° South 440 506 35,900  Descending Miami Center
02:03PM 29.0914 -77.6850 178° South 440 506 36,000  Climbing Miami Center
02:04PM 28.9725 -77.6794 178° South 440 506 35,900  Descending Miami Center
02:05PM 28.8492 -77.6739 178° South 438 504 36,000  Climbing Miami Center
02:06PM 28.7283 -77.6683 178° South 444 511 36,000  Level Miami Center
02:07PM 28.5969 -77.6603 177° South 477 549 36,000  Level Miami Center
02:08PM 28.4883 -77.6547 177° South 462 532 36,000 -360 Level Miami Center
02:09PM 28.3569 -77.6492 178° South 455 524 35,300 -840 Descending Miami Center
02:10PM 28.2317 -77.6411 177° South 450 518 34,400 -660 Descending Miami Center
02:11PM 28.1086 -77.6356 178° South 455 524 34,000 -300 Descending Miami Center
02:12PM 27.9875 -77.6278 177° South 455 524 33,900  Descending Miami Center
02:13PM 27.8642 -77.6197 177° South 448 516 34,000  Climbing Miami Center
02:14PM 27.7411 -77.6142 178° South 448 516 34,000  Level Miami Center
02:15PM 27.6136 -77.6089 178° South 453 521 34,000 -480 Level Miami Center
02:16PM 27.4928 -77.6008 177° South 440 506 33,100 -1,020 Descending Miami Center
02:17PM 27.3800 -77.5886 175° South 430 495 32,000 -1,080 Descending Miami Center
02:18PM 27.2692 -77.5856 179° South 410 472 31,000 -960 Descending Miami Center
02:19PM 27.1564 -77.5872 181° South 404 465 30,100 -960 Descending Miami Center
02:20PM 27.0458 -77.5794 176° South 404 465 29,100 -1,020 Descending Miami Center
02:21PM 26.9350 -77.5717 176° South 404 465 28,100 -1,020 Descending Miami Center
02:22PM 26.8267 -77.5547 172° South 404 465 27,100 -1,020 Descending Miami Center
02:23PM 26.7178 -77.5564 181° South 404 465 26,100 -1,020 Descending Miami Center
02:24PM 26.6114 -77.5467 175° South 399 459 25,100 -1,020 Descending Miami Center
02:25PM 26.5069 -77.5436 179° South 387 445 24,100 -1,020 Descending Miami Center
02:26PM 26.4025 -77.5339 175° South 381 438 23,100 -1,020 Descending Miami Center
02:28PM 26.1917 -77.5233 177° South 386 444 21,100 -1,200 Descending Miami Center
02:29PM 26.0892 -77.5181 177° South 381 438 19,600 -1,680 Descending Miami Center
02:30PM 25.9889 -77.5083 175° South 376 433 17,800 -1,740 Descending Miami Center
02:31PM 25.8950 -77.5008 176° South 360 414 16,200 -1,740 Descending Miami Center
02:32PM 25.7989 -77.4958 177° South 354 407 14,400 -1,620 Descending Miami Center
02:33PM 25.7089 -77.4908 177° South 338 389 13,000 -780 Descending Miami Center
02:34PM 25.6294 -77.4925 181° South 313 360 12,900 -120 Descending Miami Center